Time;durP1;ratioP1;P1;durP2;ratioP2;P2;SDS_P1;SDS_P2;PMS_P1;PMS_P2;Temp;Humidity;BMP_temperature;BMP_pressure;BME280_temperature;BME280_humidity;BME280_pressure;Samples;Min_cycle;Max_cycle;Signal;HPM_P1;HPM_P2
2020/12/02 00:01:28;;;;;;;18.17;13.50;;;2.10;96.70;;;;;;4995572;28;20233;-87
2020/12/02 00:04:01;;;;;;;18.53;14.03;;;2.10;96.80;;;;;;4998664;28;20207;-86
2020/12/02 00:06:29;;;;;;;21.33;14.30;;;2.10;96.80;;;;;;5012172;28;20234;-85
2020/12/02 00:08:58;;;;;;;22.00;13.17;;;2.20;96.60;;;;;;5019675;28;20207;-84
2020/12/02 00:11:27;;;;;;;21.97;14.10;;;2.20;96.20;;;;;;5004852;28;20314;-85
2020/12/02 00:13:59;;;;;;;21.90;15.13;;;2.20;96.20;;;;;;4998721;28;20210;-92
2020/12/02 00:16:29;;;;;;;21.53;14.33;;;2.10;96.10;;;;;;4998937;28;20236;-89
2020/12/02 00:18:56;;;;;;;22.33;15.07;;;2.10;96.30;;;;;;5006986;28;20203;-85
2020/12/02 00:21:24;;;;;;;22.20;14.50;;;2.10;96.20;;;;;;5012249;28;20231;-83
2020/12/02 00:23:52;;;;;;;24.33;15.30;;;2.00;96.30;;;;;;5012082;28;20639;-83
2020/12/02 00:26:20;;;;;;;22.03;15.07;;;1.90;96.30;;;;;;5010082;28;20230;-89
2020/12/02 00:28:46;;;;;;;24.77;15.97;;;1.90;96.80;;;;;;5014283;28;20203;-85
2020/12/02 00:31:14;;;;;;;22.90;15.80;;;2.00;97.10;;;;;;5017856;28;20581;-83
2020/12/02 00:33:41;;;;;;;23.20;15.37;;;2.10;96.90;;;;;;5011950;28;20202;-82
2020/12/02 00:36:08;;;;;;;25.80;15.57;;;2.00;96.70;;;;;;5010129;28;20227;-86
2020/12/02 00:38:35;;;;;;;25.67;16.00;;;2.00;96.70;;;;;;5014405;28;20214;-84
2020/12/02 00:41:01;;;;;;;23.77;15.87;;;2.00;96.50;;;;;;5014468;28;20230;-84
2020/12/02 00:43:29;;;;;;;26.70;16.77;;;1.90;96.60;;;;;;5015955;28;20204;-82
2020/12/02 00:45:58;;;;;;;25.90;16.83;;;1.90;97.10;;;;;;5012938;28;20231;-84
2020/12/02 00:48:27;;;;;;;28.33;17.97;;;1.80;96.70;;;;;;5010649;28;20204;-82
2020/12/02 00:50:54;;;;;;;28.53;17.77;;;1.90;96.90;;;;;;5021828;28;20683;-85
2020/12/02 00:53:26;;;;;;;29.50;20.00;;;1.80;96.90;;;;;;5035302;28;20618;-85
2020/12/02 00:55:54;;;;;;;35.17;20.97;;;1.80;97.00;;;;;;5018954;28;20219;-85
2020/12/02 00:58:32;;;;;;;32.47;22.13;;;1.80;96.70;;;;;;4997794;28;20217;-87
2020/12/02 01:01:02;;;;;;;35.10;21.07;;;1.70;96.50;;;;;;5000853;28;20241;-85
2020/12/02 01:03:30;;;;;;;33.57;21.80;;;1.70;96.30;;;;;;5009992;28;20214;-89
2020/12/02 01:05:59;;;;;;;30.50;19.90;;;1.60;96.20;;;;;;5014685;28;20227;-87
2020/12/02 01:08:28;;;;;;;31.90;19.87;;;1.60;96.20;;;;;;5016303;28;20694;-85
2020/12/02 01:11:01;;;;;;;33.70;20.97;;;1.70;95.80;;;;;;5014834;28;20232;-82
2020/12/02 01:13:28;;;;;;;29.43;20.37;;;1.60;95.70;;;;;;5014606;28;20214;-85
2020/12/02 01:15:54;;;;;;;35.97;21.40;;;1.60;96.10;;;;;;5017788;28;20681;-87
2020/12/02 01:18:23;;;;;;;30.20;19.87;;;1.70;95.90;;;;;;5014915;28;20431;-83
2020/12/02 01:20:57;;;;;;;29.70;18.70;;;1.70;95.80;;;;;;5031844;28;20235;-84
2020/12/02 01:23:24;;;;;;;27.63;18.13;;;1.70;95.70;;;;;;5030933;28;20304;-83
2020/12/02 01:25:52;;;;;;;32.13;18.40;;;1.60;95.60;;;;;;5016617;28;20218;-83
2020/12/02 01:28:25;;;;;;;30.93;19.57;;;1.60;95.70;;;;;;4997185;28;20203;-90
2020/12/02 01:30:52;;;;;;;31.10;19.53;;;1.60;95.80;;;;;;5011894;28;20233;-83
2020/12/02 01:33:18;;;;;;;29.87;20.30;;;1.60;95.80;;;;;;5025976;28;20387;-84
2020/12/02 01:35:49;;;;;;;32.97;20.57;;;1.60;95.50;;;;;;5015176;28;20230;-83
2020/12/02 01:38:22;;;;;;;34.10;21.80;;;1.60;95.60;;;;;;5022269;28;20195;-83
2020/12/02 01:40:53;;;;;;;32.23;21.47;;;1.60;96.00;;;;;;5025415;28;20632;-86
2020/12/02 01:43:19;;;;;;;31.70;21.90;;;1.50;95.50;;;;;;5023740;28;20203;-86
2020/12/02 01:45:48;;;;;;;38.57;22.17;;;1.40;95.60;;;;;;5027383;28;20227;-83
2020/12/02 01:48:28;;;;;;;38.20;22.93;;;1.40;95.40;;;;;;5022290;28;20217;-88
2020/12/02 01:51:00;;;;;;;35.43;20.90;;;1.30;95.50;;;;;;5020298;28;20226;-90
2020/12/02 01:53:37;;;;;;;32.37;20.80;;;1.30;95.30;;;;;;5025515;28;20504;-86
2020/12/02 01:56:14;;;;;;;34.53;21.50;;;1.30;95.30;;;;;;5027431;28;20235;-83
2020/12/02 01:58:48;;;;;;;35.77;21.30;;;1.30;95.30;;;;;;5034678;28;20227;-85
2020/12/02 02:01:21;;;;;;;32.93;20.03;;;1.20;94.40;;;;;;5025814;28;20239;-86
2020/12/02 02:03:49;;;;;;;32.47;20.23;;;1.20;94.30;;;;;;5026425;28;20253;-86
2020/12/02 02:06:20;;;;;;;35.67;20.60;;;1.10;94.60;;;;;;5036097;28;20229;-83
2020/12/02 02:08:48;;;;;;;35.73;19.63;;;1.00;94.50;;;;;;5033267;28;20205;-83
2020/12/02 02:11:17;;;;;;;30.57;19.53;;;1.00;94.50;;;;;;5030886;28;20323;-86
2020/12/02 02:14:22;;;;;;;30.87;19.37;;;0.90;94.70;;;;;;5032885;28;20231;-84
2020/12/02 02:16:49;;;;;;;33.17;19.77;;;0.90;95.20;;;;;;5027801;28;20241;-83
2020/12/02 02:19:19;;;;;;;32.27;20.10;;;1.00;94.90;;;;;;5026055;28;20224;-82
2020/12/02 02:21:48;;;;;;;30.23;19.33;;;1.00;94.70;;;;;;5033746;28;20226;-83
2020/12/02 02:24:15;;;;;;;30.20;19.57;;;0.90;94.40;;;;;;5029364;28;20674;-87
2020/12/02 02:26:46;;;;;;;31.83;19.17;;;0.90;94.90;;;;;;5027384;28;20225;-82
2020/12/02 02:29:18;;;;;;;29.33;18.70;;;0.90;94.20;;;;;;5027389;28;20202;-83
2020/12/02 02:31:50;;;;;;;27.13;17.97;;;0.90;94.20;;;;;;5030664;28;20612;-85
2020/12/02 02:34:17;;;;;;;30.67;18.67;;;0.80;94.20;;;;;;5030212;28;20211;-84
2020/12/02 02:36:45;;;;;;;26.33;17.60;;;0.80;94.20;;;;;;5026189;28;20225;-84
2020/12/02 02:39:14;;;;;;;27.23;17.83;;;0.80;94.50;;;;;;5031427;28;20200;-83
2020/12/02 02:41:42;;;;;;;29.67;18.83;;;0.90;94.20;;;;;;5029503;28;20343;-88
2020/12/02 02:44:10;;;;;;;27.87;18.20;;;0.90;94.20;;;;;;5026937;28;20201;-83
2020/12/02 02:46:37;;;;;;;28.23;17.93;;;0.90;93.80;;;;;;5024616;28;20244;-87
2020/12/02 02:49:05;;;;;;;28.77;18.07;;;0.90;93.60;;;;;;5030224;28;20217;-83
2020/12/02 02:51:31;;;;;;;26.60;17.90;;;0.80;93.60;;;;;;5004987;28;20231;-86
2020/12/02 02:53:57;;;;;;;28.20;18.50;;;0.80;93.50;;;;;;5008279;28;20199;-86
2020/12/02 02:56:24;;;;;;;28.73;18.90;;;0.80;93.70;;;;;;5019745;28;20225;-83
2020/12/02 02:58:51;;;;;;;30.30;19.03;;;0.80;93.60;;;;;;5027215;28;20196;-85
2020/12/02 03:01:18;;;;;;;30.67;19.37;;;0.80;93.80;;;;;;5020085;28;20232;-86
2020/12/02 03:03:44;;;;;;;28.00;17.50;;;0.70;94.20;;;;;;5018663;28;20214;-82
2020/12/02 03:06:11;;;;;;;28.10;17.37;;;0.70;93.80;;;;;;5021946;28;20305;-83
2020/12/02 03:08:38;;;;;;;29.10;18.03;;;0.70;93.80;;;;;;5032062;28;20211;-85
2020/12/02 03:11:08;;;;;;;30.73;18.90;;;0.70;94.20;;;;;;5033285;28;20219;-84
2020/12/02 03:13:39;;;;;;;31.80;18.50;;;0.70;94.20;;;;;;5024294;28;20202;-83
2020/12/02 03:16:14;;;;;;;29.90;18.90;;;0.70;93.70;;;;;;5018874;28;20278;-85
2020/12/02 03:18:41;;;;;;;33.57;19.50;;;0.80;94.00;;;;;;5009811;28;20205;-84
2020/12/02 03:21:13;;;;;;;30.60;19.23;;;0.80;93.90;;;;;;5013052;28;20247;-84
2020/12/02 03:23:39;;;;;;;33.17;19.73;;;0.80;93.80;;;;;;5010208;28;20219;-83
2020/12/02 03:26:06;;;;;;;37.43;19.97;;;0.90;93.30;;;;;;5010619;28;20240;-84
2020/12/02 03:28:33;;;;;;;33.17;19.47;;;0.80;93.40;;;;;;5004973;28;20205;-83
2020/12/02 03:31:02;;;;;;;35.53;20.20;;;0.80;93.40;;;;;;5021001;28;20236;-84
2020/12/02 03:33:29;;;;;;;33.03;19.27;;;0.80;93.30;;;;;;5029843;28;20212;-83
2020/12/02 03:35:56;;;;;;;32.83;19.30;;;0.80;92.70;;;;;;5027750;28;21049;-83
2020/12/02 03:38:24;;;;;;;31.90;19.90;;;0.70;92.90;;;;;;5024029;28;20269;-86
2020/12/02 03:40:51;;;;;;;30.97;19.17;;;0.70;92.80;;;;;;5032867;28;20335;-84
2020/12/02 03:43:18;;;;;;;35.00;19.93;;;0.70;92.80;;;;;;5035619;28;20202;-83
2020/12/02 03:45:45;;;;;;;36.03;20.07;;;0.60;92.80;;;;;;5025210;28;20220;-84
2020/12/02 03:48:13;;;;;;;38.40;21.40;;;0.50;93.10;;;;;;5008456;28;20199;-85
2020/12/02 03:50:41;;;;;;;34.07;20.23;;;0.40;93.70;;;;;;5015044;28;20227;-85
2020/12/02 03:53:09;;;;;;;39.83;22.30;;;0.20;93.60;;;;;;5015286;28;20197;-85
2020/12/02 03:55:36;;;;;;;36.60;20.97;;;0.20;94.10;;;;;;5014273;28;20286;-83
2020/12/02 03:58:03;;;;;;;34.57;19.80;;;0.30;94.10;;;;;;5013040;28;20199;-83
2020/12/02 04:00:30;;;;;;;32.13;20.20;;;0.30;94.10;;;;;;5006874;28;20442;-85
2020/12/02 04:02:57;;;;;;;36.07;21.17;;;0.30;93.70;;;;;;5026662;28;20199;-86
2020/12/02 04:05:24;;;;;;;37.80;21.60;;;0.40;93.10;;;;;;5028027;28;20231;-86
2020/12/02 04:07:52;;;;;;;36.13;21.07;;;0.30;92.90;;;;;;5024876;28;20199;-83
2020/12/02 04:10:18;;;;;;;35.83;21.53;;;0.30;93.10;;;;;;5024551;28;20306;-86
2020/12/02 04:12:45;;;;;;;36.50;21.07;;;0.30;92.90;;;;;;5032921;28;20203;-85
2020/12/02 04:15:13;;;;;;;35.93;21.53;;;0.20;93.00;;;;;;5027553;28;20712;-84
2020/12/02 04:17:39;;;;;;;37.90;21.30;;;0.20;93.30;;;;;;5030148;28;20218;-82
2020/12/02 04:20:06;;;;;;;38.57;22.60;;;0.20;93.30;;;;;;5028368;28;20223;-85
2020/12/02 04:22:33;;;;;;;43.50;23.77;;;0.20;93.20;;;;;;5031207;28;20202;-83
2020/12/02 04:25:01;;;;;;;40.80;24.03;;;0.20;93.00;;;;;;5024980;28;20200;-86
2020/12/02 04:27:28;;;;;;;31.07;19.60;;;0.20;92.80;;;;;;5024702;28;20661;-82
2020/12/02 04:29:55;;;;;;;36.83;20.47;;;0.20;92.80;;;;;;5026375;28;20195;-84
2020/12/02 04:32:21;;;;;;;32.43;19.13;;;0.10;92.90;;;;;;5026247;28;20213;-87
2020/12/02 04:34:48;;;;;;;34.30;18.47;;;0.20;92.80;;;;;;5029557;28;20211;-83
2020/12/02 04:37:14;;;;;;;33.63;19.70;;;0.00;92.70;;;;;;5030305;28;20199;-83
2020/12/02 04:39:40;;;;;;;38.53;20.43;;;-0.10;92.80;;;;;;5033496;28;20564;-86
2020/12/02 04:42:09;;;;;;;36.33;20.43;;;0.00;93.00;;;;;;5025466;28;20222;-85
2020/12/02 04:44:36;;;;;;;40.13;20.93;;;-0.10;93.00;;;;;;5027681;28;20205;-83
2020/12/02 04:47:05;;;;;;;32.90;18.50;;;-0.10;92.90;;;;;;5030276;28;20225;-83
2020/12/02 04:49:34;;;;;;;41.03;21.93;;;-0.10;92.80;;;;;;5032378;28;20202;-84
2020/12/02 04:52:03;;;;;;;38.43;20.60;;;-0.10;93.10;;;;;;5015073;28;20762;-89
2020/12/02 04:54:30;;;;;;;39.97;22.00;;;-0.10;93.00;;;;;;5014563;28;20695;-84
2020/12/02 04:56:56;;;;;;;42.13;22.73;;;-0.20;93.10;;;;;;5012490;28;20310;-89
2020/12/02 04:59:35;;;;;;;44.17;23.83;;;-0.30;93.40;;;;;;5014200;28;20249;-83
2020/12/02 05:02:02;;;;;;;47.00;24.77;;;-0.20;94.00;;;;;;5030842;28;20227;-87
2020/12/02 05:04:29;;;;;;;47.23;23.80;;;-0.30;94.00;;;;;;5031475;28;20213;-84
2020/12/02 05:07:13;;;;;;;46.70;24.77;;;-0.20;94.00;;;;;;5029912;28;20214;-82
2020/12/02 05:09:53;;;;;;;51.50;26.27;;;-0.20;94.00;;;;;;5023230;28;20593;-85
2020/12/02 05:12:23;;;;;;;48.67;25.07;;;-0.10;94.00;;;;;;5027594;28;20228;-83
2020/12/02 05:14:50;;;;;;;52.93;25.50;;;-0.10;94.00;;;;;;5030330;28;20198;-83
2020/12/02 05:17:21;;;;;;;50.83;26.40;;;-0.10;94.00;;;;;;5032930;28;20206;-85
2020/12/02 05:20:02;;;;;;;47.17;25.63;;;-0.20;94.00;;;;;;5026706;28;20225;-84
2020/12/02 05:22:28;;;;;;;53.83;26.40;;;-0.10;94.00;;;;;;5000922;28;20214;-85
2020/12/02 05:24:55;;;;;;;53.93;27.07;;;-0.20;94.00;;;;;;5001518;28;20211;-86
2020/12/02 05:27:32;;;;;;;48.67;24.87;;;-0.20;94.00;;;;;;5030391;28;20202;-85
2020/12/02 05:30:19;;;;;;;49.80;26.27;;;-0.10;94.00;;;;;;5022537;28;20203;-87
2020/12/02 05:33:03;;;;;;;48.53;24.47;;;-0.10;94.00;;;;;;5028322;28;20195;-85
2020/12/02 05:35:32;;;;;;;47.83;25.23;;;-0.10;94.00;;;;;;5027098;28;20233;-86
2020/12/02 05:37:59;;;;;;;46.10;24.53;;;-0.10;94.00;;;;;;5027542;28;20202;-88
2020/12/02 05:40:56;;;;;;;49.97;25.10;;;-0.20;94.00;;;;;;5103053;27;21134;-84
2020/12/02 05:43:29;;;;;;;42.93;23.20;;;-0.20;94.00;;;;;;5065657;28;20233;-82
2020/12/02 05:45:58;;;;;;;46.07;23.40;;;-0.20;94.00;;;;;;5065280;28;20224;-82
2020/12/02 05:48:31;;;;;;;44.10;23.60;;;-0.20;94.00;;;;;;5064384;28;20594;-82
2020/12/02 05:50:57;;;;;;;43.13;24.37;;;-0.20;93.80;;;;;;5051215;28;20751;-83
2020/12/02 05:53:30;;;;;;;43.70;23.40;;;-0.10;93.50;;;;;;5049340;28;20218;-90
2020/12/02 05:55:57;;;;;;;41.07;21.43;;;-0.10;92.50;;;;;;5051640;28;20225;-87
2020/12/02 05:58:27;;;;;;;42.47;22.43;;;-0.10;92.20;;;;;;5048652;28;20201;-87
2020/12/02 06:00:54;;;;;;;37.60;20.70;;;-0.30;91.60;;;;;;5047430;28;20229;-88
2020/12/02 06:03:25;;;;;;;41.63;21.83;;;-0.50;91.80;;;;;;5041755;28;20209;-87
2020/12/02 06:05:59;;;;;;;38.07;21.27;;;-0.50;91.60;;;;;;5045513;28;20229;-84
2020/12/02 06:08:36;;;;;;;38.50;21.27;;;-0.50;91.70;;;;;;5042038;28;20205;-81
2020/12/02 06:11:24;;;;;;;42.93;23.07;;;-0.50;91.90;;;;;;5042973;28;20231;-84
2020/12/02 06:13:52;;;;;;;41.40;21.97;;;-0.40;91.70;;;;;;5045699;28;20201;-84
2020/12/02 06:16:34;;;;;;;42.57;22.93;;;-0.40;91.40;;;;;;5030530;28;20240;-87
2020/12/02 06:19:09;;;;;;;43.07;23.33;;;-0.40;91.30;;;;;;5025499;28;20224;-83
2020/12/02 06:21:41;;;;;;;42.17;22.97;;;-0.40;91.50;;;;;;5025064;28;20600;-84
2020/12/02 06:24:08;;;;;;;43.73;24.03;;;-0.40;91.70;;;;;;5026652;28;20202;-85
2020/12/02 06:26:37;;;;;;;44.43;23.40;;;-0.50;91.70;;;;;;5042798;28;20231;-86
2020/12/02 06:29:04;;;;;;;43.30;23.10;;;-0.50;92.00;;;;;;5043629;28;20201;-81
2020/12/02 06:31:32;;;;;;;43.73;23.57;;;-0.40;92.00;;;;;;5047460;28;20917;-82
2020/12/02 06:34:06;;;;;;;41.40;23.87;;;-0.30;91.90;;;;;;5049640;28;20428;-83
2020/12/02 06:36:34;;;;;;;42.30;23.57;;;-0.30;91.70;;;;;;5039342;28;20221;-83
2020/12/02 06:39:22;;;;;;;43.57;23.30;;;-0.30;91.40;;;;;;5029342;28;20229;-83
2020/12/02 06:41:50;;;;;;;40.90;22.93;;;-0.30;91.30;;;;;;5026552;28;20232;-84
2020/12/02 06:44:41;;;;;;;44.07;24.07;;;-0.20;91.70;;;;;;5024329;28;20217;-83
2020/12/02 06:47:25;;;;;;;44.00;24.27;;;-0.30;91.50;;;;;;5029385;28;20527;-85
2020/12/02 06:49:56;;;;;;;42.97;23.13;;;-0.20;91.70;;;;;;5025639;28;20772;-82
2020/12/02 06:52:26;;;;;;;44.70;24.23;;;-0.20;91.50;;;;;;5012788;28;20206;-86
2020/12/02 06:55:00;;;;;;;40.23;22.80;;;-0.30;91.30;;;;;;5010576;28;20551;-87
2020/12/02 06:57:29;;;;;;;44.03;23.33;;;-0.30;91.40;;;;;;5014443;28;20229;-84
2020/12/02 06:59:57;;;;;;;43.90;23.83;;;-0.30;91.80;;;;;;5013772;28;20329;-85
2020/12/02 07:02:39;;;;;;;45.43;25.43;;;-0.30;91.80;;;;;;5014264;28;20216;-82
2020/12/02 07:05:08;;;;;;;46.80;25.83;;;-0.20;91.70;;;;;;5016136;28;20233;-88
2020/12/02 07:07:34;;;;;;;46.50;25.83;;;-0.40;91.20;;;;;;5013221;28;20238;-86
2020/12/02 07:10:01;;;;;;;48.83;26.97;;;-0.40;91.40;;;;;;5017059;28;20255;-89
2020/12/02 07:12:30;;;;;;;49.70;27.47;;;-0.50;91.60;;;;;;5036945;28;20667;-85
2020/12/02 07:15:00;;;;;;;47.07;25.83;;;-0.50;91.60;;;;;;5034145;28;20745;-81
2020/12/02 07:17:27;;;;;;;51.93;25.40;;;-0.60;91.80;;;;;;5032027;28;20208;-88
2020/12/02 07:19:54;;;;;;;50.60;25.33;;;-0.70;91.90;;;;;;5035743;28;20242;-82
2020/12/02 07:22:25;;;;;;;44.90;24.93;;;-0.70;91.90;;;;;;5032826;28;20206;-83
2020/12/02 07:24:58;;;;;;;45.97;25.43;;;-0.70;92.20;;;;;;5038036;28;20846;-82
2020/12/02 07:27:25;;;;;;;42.27;22.87;;;-0.60;92.00;;;;;;5039642;28;20210;-82
2020/12/02 07:29:58;;;;;;;47.43;23.70;;;-0.60;91.70;;;;;;5039256;28;20203;-86
2020/12/02 07:32:25;;;;;;;43.70;23.10;;;-0.50;91.70;;;;;;5036015;28;20216;-85
2020/12/02 07:35:00;;;;;;;38.80;22.03;;;-0.40;91.20;;;;;;5049865;28;20218;-82
2020/12/02 07:37:27;;;;;;;39.80;22.13;;;-0.40;91.20;;;;;;5037016;28;20795;-82
2020/12/02 07:39:57;;;;;;;41.87;22.93;;;-0.40;91.00;;;;;;5043907;28;20222;-82
2020/12/02 07:42:27;;;;;;;39.30;20.67;;;-0.40;91.10;;;;;;5041411;28;20549;-83
2020/12/02 07:45:05;;;;;;;35.43;19.57;;;-0.30;90.90;;;;;;5049999;28;20517;-82
2020/12/02 07:47:32;;;;;;;36.40;19.70;;;-0.30;90.70;;;;;;5043152;28;20205;-82
2020/12/02 07:50:02;;;;;;;44.13;21.07;;;-0.20;90.60;;;;;;5043584;28;20198;-85
2020/12/02 07:52:35;;;;;;;36.73;20.80;;;-0.20;90.40;;;;;;5037310;28;20228;-82
2020/12/02 07:55:03;;;;;;;39.47;21.67;;;-0.30;90.50;;;;;;5044165;28;20739;-83
2020/12/02 07:57:29;;;;;;;38.83;21.20;;;-0.40;90.50;;;;;;5043444;28;20210;-82
2020/12/02 08:00:23;;;;;;;37.10;20.50;;;-0.30;90.90;;;;;;5041652;28;20461;-82
2020/12/02 08:02:49;;;;;;;39.33;20.67;;;-0.20;90.50;;;;;;5040971;28;20213;-85
2020/12/02 08:05:31;;;;;;;36.40;19.53;;;-0.10;90.60;;;;;;5043869;28;20605;-86
2020/12/02 08:08:00;;;;;;;37.67;19.97;;;-0.10;90.60;;;;;;5042199;28;20209;-82
2020/12/02 08:10:31;;;;;;;37.50;19.53;;;0.00;90.70;;;;;;5050044;28;20685;-84
2020/12/02 08:12:59;;;;;;;33.43;19.17;;;0.00;90.50;;;;;;5045038;28;20202;-83
2020/12/02 08:15:26;;;;;;;38.23;20.20;;;0.00;90.30;;;;;;5041303;28;20229;-82
2020/12/02 08:18:14;;;;;;;36.97;19.10;;;0.00;90.60;;;;;;5037522;28;20206;-81
2020/12/02 08:20:42;;;;;;;38.00;19.33;;;0.00;90.50;;;;;;5046546;28;20230;-83
2020/12/02 08:23:12;;;;;;;36.47;19.43;;;0.00;90.60;;;;;;5045745;28;20516;-82
2020/12/02 08:25:51;;;;;;;37.53;20.00;;;0.10;90.40;;;;;;5041047;28;20580;-82
2020/12/02 08:28:22;;;;;;;38.10;20.33;;;0.00;90.40;;;;;;5042852;28;20203;-85
2020/12/02 08:30:59;;;;;;;31.20;18.13;;;0.00;90.30;;;;;;5044474;28;20262;-83
2020/12/02 08:33:25;;;;;;;36.00;19.77;;;0.10;90.20;;;;;;5040910;28;20206;-82
2020/12/02 08:35:52;;;;;;;36.50;19.93;;;0.00;90.40;;;;;;5038210;28;20259;-83
2020/12/02 08:38:26;;;;;;;35.47;18.27;;;0.00;90.50;;;;;;5037335;28;20722;-83
2020/12/02 08:40:55;;;;;;;34.40;18.73;;;0.00;90.30;;;;;;5040662;28;20221;-84
2020/12/02 08:43:35;;;;;;;34.47;19.07;;;0.00;90.10;;;;;;5044230;28;20434;-85
2020/12/02 08:46:10;;;;;;;31.93;17.67;;;0.00;90.10;;;;;;5039740;28;20578;-81
2020/12/02 08:48:37;;;;;;;33.03;17.53;;;0.00;90.20;;;;;;5043083;28;20205;-83
2020/12/02 08:51:03;;;;;;;32.43;16.23;;;-0.10;90.30;;;;;;5037188;28;20245;-81
2020/12/02 08:53:31;;;;;;;29.23;15.57;;;-0.10;90.10;;;;;;5036793;28;20215;-81
2020/12/02 08:56:00;;;;;;;31.00;16.93;;;0.00;90.20;;;;;;5038098;28;20217;-82
2020/12/02 08:58:26;;;;;;;31.63;17.60;;;0.10;90.20;;;;;;5040795;28;20210;-82
2020/12/02 09:00:53;;;;;;;34.63;18.37;;;0.10;90.20;;;;;;5044063;28;20240;-83
2020/12/02 09:03:23;;;;;;;33.03;17.97;;;0.10;90.30;;;;;;5039385;28;20202;-82
2020/12/02 09:05:49;;;;;;;30.83;16.17;;;0.20;90.30;;;;;;5031183;28;20222;-86
2020/12/02 09:08:16;;;;;;;31.87;17.87;;;0.30;89.90;;;;;;5039641;28;20233;-82
2020/12/02 09:10:42;;;;;;;29.37;16.30;;;0.30;89.10;;;;;;5035280;28;20222;-82
2020/12/02 09:13:09;;;;;;;27.50;14.87;;;0.40;88.20;;;;;;5043033;28;20218;-82
2020/12/02 09:15:36;;;;;;;27.17;15.57;;;0.40;86.00;;;;;;5040702;28;20238;-83
2020/12/02 09:18:02;;;;;;;28.93;15.73;;;0.30;87.20;;;;;;5044008;28;20692;-83
2020/12/02 09:20:29;;;;;;;26.63;15.13;;;0.30;87.50;;;;;;5042792;28;20249;-81
2020/12/02 09:22:55;;;;;;;32.23;16.97;;;0.30;87.00;;;;;;5039627;28;20204;-83
2020/12/02 09:25:22;;;;;;;25.73;15.20;;;0.40;87.10;;;;;;5051078;28;20442;-82
2020/12/02 09:27:48;;;;;;;26.17;15.57;;;0.30;86.40;;;;;;5039580;28;20198;-83
2020/12/02 09:30:15;;;;;;;28.47;15.13;;;0.30;86.00;;;;;;5045077;28;20206;-82
2020/12/02 09:32:41;;;;;;;25.40;14.27;;;0.20;87.00;;;;;;5032991;28;20210;-82
2020/12/02 09:35:09;;;;;;;26.47;14.93;;;0.30;87.20;;;;;;5035409;28;20202;-83
2020/12/02 09:37:35;;;;;;;29.13;16.60;;;0.40;86.00;;;;;;5044144;28;20208;-81
2020/12/02 09:40:05;;;;;;;26.97;14.90;;;0.20;87.40;;;;;;5040069;28;20746;-85
2020/12/02 09:42:59;;;;;;;27.17;15.87;;;0.30;87.60;;;;;;5038317;28;20316;-84
2020/12/02 09:45:38;;;;;;;28.40;14.60;;;0.40;87.40;;;;;;5035885;28;20244;-81
2020/12/02 09:48:11;;;;;;;24.43;13.90;;;0.50;86.20;;;;;;5042143;28;20198;-85
2020/12/02 09:50:37;;;;;;;23.83;13.73;;;0.40;85.60;;;;;;5040606;28;20699;-81
2020/12/02 09:53:15;;;;;;;25.70;14.43;;;0.30;86.00;;;;;;5042622;28;20195;-81
2020/12/02 09:55:42;;;;;;;48.60;26.87;;;0.40;86.00;;;;;;5042418;28;20222;-82
2020/12/02 09:58:10;;;;;;;28.77;16.70;;;0.40;86.00;;;;;;5044280;28;20205;-82
2020/12/02 10:00:37;;;;;;;30.47;16.43;;;0.50;86.10;;;;;;5044766;28;20227;-84
2020/12/02 10:03:43;;;;;;;32.67;18.60;;;0.40;86.00;;;;;;5043938;28;20203;-84
2020/12/02 10:06:42;;;;;;;32.13;17.80;;;0.40;86.00;;;;;;5041006;28;20224;-84
2020/12/02 10:09:42;;;;;;;27.80;16.10;;;0.40;86.80;;;;;;5035650;28;20681;-84
2020/12/02 10:12:16;;;;;;;30.33;16.93;;;0.40;86.10;;;;;;5041071;28;20986;-82
2020/12/02 10:14:59;;;;;;;31.13;16.80;;;0.30;86.50;;;;;;5046580;28;20198;-81
2020/12/02 10:17:41;;;;;;;31.37;17.10;;;0.40;86.00;;;;;;5036353;28;20226;-83
2020/12/02 10:20:18;;;;;;;26.80;16.10;;;0.40;86.00;;;;;;5044382;28;20234;-82
2020/12/02 10:23:15;;;;;;;28.13;17.27;;;0.40;86.00;;;;;;5042006;28;20207;-80
2020/12/02 10:26:01;;;;;;;30.93;18.37;;;0.50;86.10;;;;;;5043013;28;20222;-84
2020/12/02 10:28:32;;;;;;;31.63;17.67;;;0.20;86.90;;;;;;5050469;28;20206;-82
2020/12/02 10:31:19;;;;;;;30.37;18.73;;;0.20;86.00;;;;;;5040888;28;20223;-81
2020/12/02 10:34:02;;;;;;;32.37;18.10;;;0.30;87.70;;;;;;5042348;28;20218;-84
2020/12/02 10:36:31;;;;;;;35.27;18.73;;;0.40;86.30;;;;;;5038983;28;20593;-82
2020/12/02 10:39:01;;;;;;;31.07;18.47;;;0.50;86.10;;;;;;5047972;28;20570;-82
2020/12/02 10:41:34;;;;;;;30.47;17.83;;;0.50;86.20;;;;;;5044108;28;20233;-81
2020/12/02 10:44:15;;;;;;;30.43;18.13;;;0.50;86.10;;;;;;5048791;28;20198;-83
2020/12/02 10:46:57;;;;;;;33.10;17.63;;;0.50;86.10;;;;;;5047483;28;20693;-81
2020/12/02 10:49:29;;;;;;;28.23;16.87;;;0.50;86.10;;;;;;5044402;28;20220;-82
2020/12/02 10:51:56;;;;;;;31.97;17.53;;;0.60;86.20;;;;;;5047044;28;20277;-81
2020/12/02 10:54:24;;;;;;;28.37;16.80;;;0.60;86.20;;;;;;5047006;28;20270;-83
2020/12/02 10:56:56;;;;;;;28.63;17.23;;;0.70;86.20;;;;;;5049623;28;20237;-83
2020/12/02 10:59:24;;;;;;;32.23;18.30;;;0.70;86.20;;;;;;5040224;28;20229;-82
2020/12/02 11:01:51;;;;;;;31.83;18.27;;;0.70;86.00;;;;;;5047226;28;20211;-79
2020/12/02 11:04:19;;;;;;;30.67;18.10;;;0.70;85.90;;;;;;5042856;28;20681;-79
2020/12/02 11:07:17;;;;;;;30.40;18.23;;;0.70;86.20;;;;;;5037024;28;20224;-80
2020/12/02 11:09:53;;;;;;;35.80;17.50;;;0.80;85.40;;;;;;5039246;28;20205;-79
2020/12/02 11:12:39;;;;;;;34.93;18.20;;;0.70;84.90;;;;;;5039808;28;20223;-79
2020/12/02 11:15:17;;;;;;;30.93;17.87;;;0.70;85.20;;;;;;5045397;28;20196;-80
2020/12/02 11:18:21;;;;;;;30.47;18.40;;;0.50;86.10;;;;;;5040767;28;20241;-79
2020/12/02 11:20:52;;;;;;;32.30;17.33;;;0.60;86.20;;;;;;5039675;28;20214;-85
2020/12/02 11:23:38;;;;;;;37.47;18.90;;;0.50;86.10;;;;;;5045339;28;20218;-84
2020/12/02 11:26:12;;;;;;;31.93;17.97;;;0.40;86.00;;;;;;5039943;28;20234;-82
2020/12/02 11:28:41;;;;;;;35.80;18.77;;;0.40;86.00;;;;;;5041785;28;20210;-85
2020/12/02 11:31:29;;;;;;;31.87;18.70;;;0.50;86.10;;;;;;5048494;28;20230;-84
2020/12/02 11:34:11;;;;;;;34.37;18.60;;;0.40;86.30;;;;;;5043108;28;20356;-85
2020/12/02 11:36:51;;;;;;;31.90;17.63;;;0.50;86.20;;;;;;5041383;28;20230;-82
2020/12/02 11:39:43;;;;;;;37.53;18.23;;;0.50;86.10;;;;;;5040006;28;20204;-82
2020/12/02 11:42:17;;;;;;;34.53;19.10;;;0.50;86.10;;;;;;5035335;28;20231;-82
2020/12/02 11:44:53;;;;;;;35.17;19.13;;;0.40;86.00;;;;;;5041046;28;20214;-83
2020/12/02 11:47:30;;;;;;;33.47;19.23;;;0.50;86.10;;;;;;5040202;28;20218;-82
2020/12/02 11:50:01;;;;;;;34.53;19.03;;;0.50;86.10;;;;;;5044257;28;20308;-83
2020/12/02 11:52:40;;;;;;;38.20;20.50;;;0.50;86.10;;;;;;5042181;28;20589;-82
2020/12/02 11:55:15;;;;;;;34.97;19.27;;;0.50;86.10;;;;;;5042241;28;20201;-84
2020/12/02 11:57:48;;;;;;;33.87;19.50;;;0.50;87.00;;;;;;5047643;28;20207;-83
2020/12/02 12:00:15;;;;;;;37.20;21.43;;;0.50;86.10;;;;;;5042433;28;20858;-83
2020/12/02 12:02:56;;;;;;;34.87;20.33;;;0.40;86.10;;;;;;5036715;28;20201;-82
2020/12/02 12:05:26;;;;;;;33.90;19.87;;;0.40;86.00;;;;;;5032456;28;20236;-83
2020/12/02 12:08:08;;;;;;;33.67;19.90;;;0.40;86.00;;;;;;5042520;28;20207;-85
2020/12/02 12:10:41;;;;;;;33.73;19.83;;;0.40;86.00;;;;;;5037235;28;20593;-82
2020/12/02 12:13:16;;;;;;;33.67;20.07;;;0.40;86.00;;;;;;5041045;28;20610;-84
2020/12/02 12:15:44;;;;;;;35.47;20.90;;;0.40;86.10;;;;;;5036422;28;20446;-82
2020/12/02 12:18:17;;;;;;;41.07;20.47;;;0.30;86.00;;;;;;5043607;28;20195;-82
2020/12/02 12:20:52;;;;;;;33.13;19.43;;;0.30;86.00;;;;;;5039074;28;20228;-83
2020/12/02 12:23:30;;;;;;;34.33;20.20;;;0.20;84.40;;;;;;5042343;28;20573;-83
2020/12/02 12:25:58;;;;;;;33.60;19.07;;;0.10;85.90;;;;;;5043684;28;20222;-82
2020/12/02 12:28:27;;;;;;;34.83;19.77;;;0.10;84.40;;;;;;5041092;28;20635;-82
2020/12/02 12:31:01;;;;;;;34.93;19.73;;;0.10;84.70;;;;;;5037161;28;20222;-83
2020/12/02 12:33:34;;;;;;;31.57;18.80;;;0.10;85.90;;;;;;5043581;28;20289;-83
2020/12/02 12:36:05;;;;;;;33.37;18.40;;;0.10;84.70;;;;;;5042627;28;20222;-83
2020/12/02 12:38:37;;;;;;;33.33;19.00;;;0.00;85.40;;;;;;5034226;28;20212;-81
2020/12/02 12:41:14;;;;;;;32.50;18.13;;;-0.10;85.80;;;;;;5033545;28;20231;-84
2020/12/02 12:43:48;;;;;;;31.07;18.53;;;0.00;85.60;;;;;;5041870;28;21421;-83
2020/12/02 12:46:25;;;;;;;30.13;18.20;;;0.00;85.80;;;;;;5038966;28;20228;-84
2020/12/02 12:48:54;;;;;;;35.20;18.47;;;0.10;84.70;;;;;;5041569;28;20202;-83
2020/12/02 12:51:22;;;;;;;31.37;17.90;;;0.10;83.60;;;;;;5036128;28;20233;-83
2020/12/02 12:53:50;;;;;;;31.60;18.13;;;0.20;83.90;;;;;;5035174;28;20198;-83
2020/12/02 12:56:17;;;;;;;30.73;18.50;;;0.20;83.40;;;;;;5041363;28;20230;-83